createdAt,value
2018-06-24T00:01:26.918Z,55.30
2018-06-24T00:03:56.728Z,54.70
2018-06-24T00:06:26.592Z,55.70
2018-06-24T00:08:56.557Z,56.00
2018-06-24T00:11:26.466Z,56.80
2018-06-24T00:13:56.281Z,56.00
2018-06-24T00:16:26.033Z,55.90
2018-06-24T00:18:55.683Z,56.80
2018-06-24T00:21:25.352Z,57.80
2018-06-24T00:23:55.019Z,57.10
2018-06-24T00:26:24.804Z,57.30
2018-06-24T00:28:54.705Z,57.20
2018-06-24T00:31:24.442Z,57.70
2018-06-24T00:33:54.257Z,57.60
2018-06-24T00:36:24.008Z,57.90
2018-06-24T00:41:22.932Z,59.40
2018-06-24T00:43:52.717Z,60.00
2018-06-24T00:46:22.367Z,58.60
2018-06-24T00:48:51.799Z,59.60
2018-06-24T00:51:21.515Z,59.80
2018-06-24T00:53:51.288Z,59.70
2018-06-24T00:56:20.928Z,60.60
2018-06-24T00:58:50.713Z,60.50
2018-06-24T01:01:20.328Z,60.10
2018-06-24T01:03:50.036Z,60.10
2018-06-24T01:06:19.718Z,60.00
2018-06-24T01:08:49.387Z,59.60
2018-06-24T01:11:19.372Z,61.00
2018-06-24T01:13:49.001Z,61.40
2018-06-24T01:16:18.791Z,63.60
2018-06-24T01:18:48.500Z,63.10
2018-06-24T01:21:18.263Z,64.40
2018-06-24T01:23:47.999Z,66.70
2018-06-24T01:26:17.755Z,67.30
2018-06-24T01:28:47.623Z,67.70
2018-06-24T01:31:17.276Z,68.10
2018-06-24T01:33:46.961Z,68.00
2018-06-24T01:36:16.694Z,68.20
2018-06-24T01:38:46.403Z,67.70
2018-06-24T01:41:16.167Z,68.60
2018-06-24T01:43:45.820Z,67.50
2018-06-24T01:46:15.507Z,68.00
2018-06-24T01:48:45.351Z,67.30
2018-06-24T01:51:15.028Z,68.00
2018-06-24T01:53:44.720Z,66.90
2018-06-24T01:56:14.489Z,66.60
2018-06-24T01:58:44.253Z,67.00
2018-06-24T02:01:13.893Z,67.40
2018-06-24T02:03:43.656Z,67.50
2018-06-24T02:06:16.844Z,66.70
2018-06-24T02:08:49.683Z,66.60
2018-06-24T02:11:22.762Z,66.90
2018-06-24T02:13:52.385Z,65.60
2018-06-24T02:16:22.407Z,65.20
2018-06-24T02:18:52.079Z,66.10
2018-06-24T02:21:21.689Z,65.00
2018-06-24T02:23:51.387Z,65.50
2018-06-24T02:26:21.152Z,66.50
2018-06-24T02:28:50.899Z,65.50
2018-06-24T02:31:20.548Z,65.60
2018-06-24T02:33:50.247Z,65.70
2018-06-24T02:36:19.920Z,65.90
2018-06-24T02:38:49.796Z,65.60
2018-06-24T02:41:19.548Z,65.30
2018-06-24T02:43:49.221Z,65.60
2018-06-24T02:46:18.872Z,64.80
2018-06-24T02:48:48.585Z,64.70
2018-06-24T02:51:18.584Z,64.40
2018-06-24T02:56:17.452Z,65.00
2018-06-24T02:58:47.213Z,65.70
2018-06-24T03:01:16.960Z,65.60
2018-06-24T03:03:46.732Z,65.60
2018-06-24T03:06:16.388Z,66.90
2018-06-24T03:08:46.208Z,65.30
2018-06-24T03:11:15.914Z,65.20
2018-06-24T03:13:45.759Z,64.90
2018-06-24T03:18:44.585Z,64.60
2018-06-24T03:21:14.435Z,65.20
2018-06-24T03:23:44.203Z,64.70
2018-06-24T03:26:13.839Z,64.40
2018-06-24T03:28:43.528Z,63.30
2018-06-24T03:33:42.556Z,64.00
2018-06-24T03:36:12.245Z,63.90
2018-06-24T03:38:42.003Z,63.70
2018-06-24T03:41:11.983Z,63.00
2018-06-24T03:43:41.540Z,63.10
2018-06-24T03:46:11.496Z,63.50
2018-06-24T03:48:41.245Z,63.20
2018-06-24T03:51:11.126Z,64.70
2018-06-24T03:53:40.873Z,63.40
2018-06-24T03:56:11.074Z,63.50
2018-06-24T03:58:40.502Z,63.60
2018-06-24T04:01:10.294Z,62.80
2018-06-24T04:03:39.977Z,61.40
2018-06-24T04:06:09.947Z,61.90
2018-06-24T04:08:39.762Z,62.90
2018-06-24T04:11:09.524Z,63.30
2018-06-24T04:13:39.165Z,62.10
2018-06-24T04:16:08.975Z,62.10
2018-06-24T04:18:44.875Z,61.90
2018-06-24T04:21:15.636Z,61.50
2018-06-24T04:23:45.984Z,61.50
2018-06-24T04:26:15.716Z,61.60
2018-06-24T04:28:45.483Z,61.60
2018-06-24T04:31:15.121Z,62.80
2018-06-24T04:33:44.907Z,61.20
2018-06-24T04:36:14.592Z,60.70
2018-06-24T04:38:44.241Z,61.00
2018-06-24T04:41:14.015Z,61.70
2018-06-24T04:43:43.778Z,61.00
2018-06-24T04:46:13.571Z,61.30
2018-06-24T04:48:43.308Z,60.50
2018-06-24T04:51:13.018Z,62.30
2018-06-24T04:53:42.866Z,62.00
2018-06-24T04:58:41.921Z,60.60
2018-06-24T05:01:11.597Z,60.60
2018-06-24T05:03:41.362Z,60.40
2018-06-24T05:06:11.022Z,60.60
2018-06-24T05:08:40.640Z,59.80
2018-06-24T05:11:10.433Z,59.80
2018-06-24T05:13:40.595Z,60.90
2018-06-24T05:16:10.360Z,61.00
2018-06-24T05:18:40.123Z,60.20
2018-06-24T05:21:09.993Z,61.30
2018-06-24T05:23:39.645Z,61.00
2018-06-24T05:26:09.513Z,60.30
2018-06-24T05:28:39.160Z,60.30
2018-06-24T05:31:08.885Z,60.50
2018-06-24T05:33:39.300Z,61.20
2018-06-24T05:36:09.073Z,59.80
2018-06-24T05:38:38.817Z,59.90
2018-06-24T05:41:08.442Z,60.30
2018-06-24T05:43:38.212Z,59.80
2018-06-24T05:46:07.861Z,60.30
2018-06-24T05:48:37.816Z,59.20
2018-06-24T05:51:07.593Z,59.90
2018-06-24T05:53:37.439Z,61.00
2018-06-24T05:56:07.214Z,59.70
2018-06-24T05:58:37.067Z,59.30
2018-06-24T06:01:06.753Z,59.30
2018-06-24T06:03:36.491Z,57.90
2018-06-24T06:06:06.260Z,58.60
2018-06-24T06:08:36.224Z,60.60
2018-06-24T06:11:05.872Z,59.50
2018-06-24T06:13:35.684Z,57.40
2018-06-24T06:16:05.404Z,58.10
2018-06-24T06:18:35.114Z,59.00
2018-06-24T06:21:05.013Z,59.90
2018-06-24T06:23:34.728Z,60.90
2018-06-24T06:26:04.488Z,60.30
2018-06-24T06:28:34.225Z,59.60
2018-06-24T06:31:03.940Z,57.20
2018-06-24T06:33:33.769Z,57.00
2018-06-24T06:36:03.475Z,57.80
2018-06-24T06:38:33.244Z,55.70
2018-06-24T06:41:02.816Z,56.10
2018-06-24T06:43:32.569Z,56.20
2018-06-24T06:46:02.320Z,54.50
2018-06-24T06:48:32.208Z,54.00
2018-06-24T06:51:01.954Z,56.20
2018-06-24T06:53:31.724Z,55.80
2018-06-24T06:56:01.644Z,54.50
2018-06-24T06:58:31.439Z,54.40
2018-06-24T07:01:01.267Z,52.20
2018-06-24T07:03:31.193Z,49.90
2018-06-24T07:06:01.108Z,1.00
2018-06-24T07:08:30.896Z,42.50
2018-06-24T07:11:00.547Z,41.40
2018-06-24T07:13:30.436Z,40.10
2018-06-24T07:16:00.160Z,41.90
2018-06-24T07:18:30.021Z,43.60
2018-06-24T07:20:59.701Z,43.50
2018-06-24T07:23:29.479Z,45.00
2018-06-24T07:25:59.400Z,46.10
2018-06-24T07:28:29.139Z,47.40
2018-06-24T07:30:58.841Z,47.20
2018-06-24T07:33:28.500Z,48.70
2018-06-24T07:38:27.339Z,46.80
2018-06-24T07:40:57.160Z,46.50
2018-06-24T07:43:26.886Z,47.00
2018-06-24T07:45:56.746Z,46.80
2018-06-24T07:48:26.612Z,48.80
2018-06-24T07:50:56.368Z,47.70
2018-06-24T07:53:26.014Z,46.00
2018-06-24T07:55:55.663Z,43.80
2018-06-24T07:58:25.331Z,41.10
2018-06-24T08:00:55.089Z,39.20
2018-06-24T08:03:25.067Z,37.90
2018-06-24T08:05:54.553Z,37.90
2018-06-24T08:08:24.235Z,37.40
2018-06-24T08:10:53.893Z,35.60
2018-06-24T08:13:23.569Z,35.70
2018-06-24T08:15:53.369Z,33.70
2018-06-24T08:18:23.004Z,34.00
2018-06-24T08:20:52.825Z,32.80
2018-06-24T08:23:22.450Z,31.70
2018-06-24T08:25:52.180Z,32.00
2018-06-24T08:28:21.969Z,31.70
2018-06-24T08:30:51.753Z,31.80
2018-06-24T08:33:21.372Z,34.60
2018-06-24T08:35:50.985Z,34.70
2018-06-24T08:38:20.644Z,35.20
2018-06-24T08:43:19.389Z,39.80
2018-06-24T08:45:49.088Z,41.00
2018-06-24T08:48:18.876Z,43.30
2018-06-24T08:50:48.612Z,43.40
2018-06-24T08:53:18.300Z,43.90
2018-06-24T08:55:48.044Z,43.70
2018-06-24T08:58:17.748Z,45.80
2018-06-24T09:00:47.371Z,43.90
2018-06-24T09:03:17.183Z,46.30
2018-06-24T09:05:46.947Z,44.50
2018-06-24T09:10:45.693Z,40.00
2018-06-24T09:13:15.373Z,38.40
2018-06-24T09:15:45.054Z,35.70
2018-06-24T09:18:14.733Z,35.00
2018-06-24T09:20:44.582Z,33.30
2018-06-24T09:23:14.264Z,31.80
2018-06-24T09:25:44.120Z,32.30
2018-06-24T09:28:13.764Z,30.20
2018-06-24T09:30:43.458Z,31.20
2018-06-24T09:33:13.189Z,30.10
2018-06-24T09:35:42.981Z,29.50
2018-06-24T09:38:12.659Z,29.50
2018-06-24T09:40:42.501Z,30.00
2018-06-24T09:43:12.290Z,30.40
2018-06-24T09:45:41.935Z,28.50
2018-06-24T09:48:11.688Z,28.70
2018-06-24T09:50:41.364Z,28.20
2018-06-24T09:53:11.051Z,29.20
2018-06-24T09:55:40.941Z,29.00
2018-06-24T09:58:10.633Z,30.80
2018-06-24T10:00:40.564Z,28.90
2018-06-24T10:03:10.325Z,28.70
2018-06-24T10:05:40.103Z,29.10
2018-06-24T10:08:09.736Z,29.10
2018-06-24T10:10:39.600Z,29.00
2018-06-24T10:13:09.365Z,29.70
2018-06-24T10:15:39.228Z,31.20
2018-06-24T10:18:09.005Z,33.10
2018-06-24T10:20:38.680Z,35.40
2018-06-24T10:23:08.416Z,36.70
2018-06-24T10:25:38.228Z,39.00
2018-06-24T10:28:08.079Z,38.50
2018-06-24T10:30:37.852Z,38.80
2018-06-24T10:33:07.714Z,37.20
2018-06-24T10:35:37.359Z,37.10
2018-06-24T10:38:07.121Z,37.20
2018-06-24T10:40:36.880Z,38.30
2018-06-24T10:43:06.756Z,39.70
2018-06-24T10:45:36.515Z,40.80
2018-06-24T10:48:06.987Z,43.40
2018-06-24T10:50:36.982Z,40.70
2018-06-24T10:53:06.943Z,43.90
2018-06-24T10:55:36.742Z,43.90
2018-06-24T10:58:06.763Z,45.70
2018-06-24T11:00:36.887Z,46.40
2018-06-24T11:03:06.600Z,44.70
2018-06-24T11:05:36.249Z,45.00
2018-06-24T11:08:06.984Z,45.00
2018-06-24T11:10:36.657Z,41.40
2018-06-24T11:13:06.540Z,44.70
2018-06-24T11:15:36.332Z,42.90
2018-06-24T11:18:06.068Z,43.90
2018-06-24T11:20:35.830Z,44.10
2018-06-24T11:23:05.584Z,44.00
2018-06-24T11:25:35.341Z,42.70
2018-06-24T11:28:05.051Z,43.50
2018-06-24T11:30:34.972Z,43.90
2018-06-24T11:33:04.769Z,43.00
2018-06-24T11:35:34.502Z,43.20
2018-06-24T11:38:04.299Z,42.90
2018-06-24T11:40:34.108Z,43.40
2018-06-24T11:43:03.730Z,43.10
2018-06-24T11:45:33.521Z,45.80
2018-06-24T11:48:03.151Z,46.90
2018-06-24T11:50:32.941Z,46.90
2018-06-24T11:53:02.621Z,47.60
2018-06-24T11:55:32.271Z,47.80
2018-06-24T11:58:01.908Z,48.40
2018-06-24T12:00:31.704Z,47.30
2018-06-24T12:03:01.592Z,48.60
2018-06-24T12:05:31.372Z,48.50
2018-06-24T12:08:01.142Z,48.60
2018-06-24T12:10:30.995Z,49.60
2018-06-24T12:13:01.031Z,47.90
2018-06-24T12:15:30.728Z,47.30
2018-06-24T12:20:29.468Z,44.20
2018-06-24T12:22:59.118Z,44.50
2018-06-24T12:25:28.997Z,45.40
2018-06-24T12:27:58.784Z,44.00
2018-06-24T12:30:28.470Z,43.40
2018-06-24T12:32:58.301Z,43.90
2018-06-24T12:35:28.100Z,40.80
2018-06-24T12:37:57.968Z,41.30
2018-06-24T12:40:31.444Z,41.30
2018-06-24T12:43:02.600Z,40.70
2018-06-24T12:45:32.907Z,43.00
2018-06-24T12:48:02.694Z,42.90
2018-06-24T12:50:32.350Z,40.20
2018-06-24T12:53:02.215Z,40.40
2018-06-24T12:55:31.874Z,41.30
2018-06-24T12:58:01.664Z,40.60
2018-06-24T13:00:31.895Z,40.90
2018-06-24T13:03:01.185Z,42.30
2018-06-24T13:05:31.020Z,41.80
2018-06-24T13:08:00.725Z,42.50
2018-06-24T13:10:30.525Z,42.20
2018-06-24T13:13:00.261Z,44.10
2018-06-24T13:15:30.036Z,43.50
2018-06-24T13:17:59.824Z,43.40
2018-06-24T13:20:29.480Z,45.00
2018-06-24T13:22:59.236Z,45.70
2018-06-24T13:25:29.065Z,44.80
2018-06-24T13:27:58.703Z,44.90
2018-06-24T13:30:28.367Z,45.90
2018-06-24T13:32:58.136Z,46.20
2018-06-24T13:35:27.888Z,50.30
2018-06-24T13:37:57.549Z,50.80
2018-06-24T13:40:27.483Z,49.20
2018-06-24T13:42:57.162Z,50.10
2018-06-24T13:45:26.762Z,47.50
2018-06-24T13:47:56.440Z,46.70
2018-06-24T13:50:26.192Z,46.20
2018-06-24T13:52:56.166Z,45.90
2018-06-24T13:57:55.111Z,46.10
2018-06-24T14:00:25.012Z,47.30
2018-06-24T14:02:54.731Z,45.20
2018-06-24T14:05:24.567Z,44.40
2018-06-24T14:07:54.405Z,46.60
2018-06-24T14:10:24.289Z,46.00
2018-06-24T14:12:53.991Z,46.70
2018-06-24T14:15:23.868Z,47.60
2018-06-24T14:17:53.612Z,47.20
2018-06-24T14:20:23.490Z,46.90
2018-06-24T14:22:53.233Z,46.90
2018-06-24T14:25:23.134Z,47.40
2018-06-24T14:27:52.698Z,49.90
2018-06-24T14:30:22.431Z,48.40
2018-06-24T14:32:52.184Z,48.30
2018-06-24T14:35:22.054Z,49.40
2018-06-24T14:37:51.701Z,45.00
2018-06-24T14:40:21.505Z,47.40
2018-06-24T14:42:52.708Z,47.80
2018-06-24T14:45:22.677Z,44.40
2018-06-24T14:47:52.656Z,43.30
2018-06-24T14:50:22.248Z,45.10
2018-06-24T14:52:51.649Z,46.50
2018-06-24T14:55:21.014Z,45.30
2018-06-24T14:57:50.395Z,46.00
2018-06-24T15:00:19.769Z,44.20
2018-06-24T15:02:49.139Z,46.10
2018-06-24T15:05:18.512Z,44.30
2018-06-24T15:07:47.884Z,44.50
2018-06-24T15:10:17.242Z,45.70
2018-06-24T15:12:46.612Z,45.60
2018-06-24T15:15:16.012Z,46.60
2018-06-24T15:17:45.368Z,46.70
2018-06-24T15:20:14.770Z,47.20
2018-06-24T15:22:44.179Z,45.30
2018-06-24T15:25:13.548Z,48.30
2018-06-24T15:27:43.104Z,46.40
2018-06-24T15:30:12.902Z,49.90
2018-06-24T15:35:11.901Z,45.70
2018-06-24T15:37:43.338Z,46.20
2018-06-24T15:40:12.779Z,50.50
2018-06-24T15:42:42.175Z,49.70
2018-06-24T15:45:11.564Z,48.10
2018-06-24T15:47:42.256Z,47.90
2018-06-24T15:50:12.739Z,44.90
2018-06-24T15:52:42.409Z,44.80
2018-06-24T15:55:12.301Z,44.90
2018-06-24T15:57:42.216Z,44.00
2018-06-24T16:00:11.698Z,47.50
2018-06-24T16:02:41.801Z,48.50
2018-06-24T16:05:11.868Z,46.90
2018-06-24T16:07:43.041Z,44.80
2018-06-24T16:10:13.860Z,45.80
2018-06-24T16:12:43.253Z,43.90
2018-06-24T16:15:12.612Z,46.50
2018-06-24T16:17:41.976Z,44.40
2018-06-24T16:20:11.355Z,44.40
2018-06-24T16:22:40.716Z,45.50
2018-06-24T16:25:10.073Z,47.20
2018-06-24T16:27:39.444Z,44.50
2018-06-24T16:30:08.813Z,46.50
2018-06-24T16:32:38.185Z,46.30
2018-06-24T16:35:07.596Z,48.90
2018-06-24T16:37:36.969Z,46.80
2018-06-24T16:40:06.413Z,48.60
2018-06-24T16:42:35.795Z,48.90
2018-06-24T16:45:05.213Z,45.80
2018-06-24T16:47:34.612Z,46.50
2018-06-24T16:50:04.166Z,49.10
2018-06-24T16:52:33.536Z,46.80
2018-06-24T16:55:02.919Z,49.30
2018-06-24T16:57:32.353Z,46.30
2018-06-24T17:00:02.108Z,49.10
2018-06-24T17:02:31.712Z,49.70
2018-06-24T17:05:01.192Z,47.20
2018-06-24T17:07:30.606Z,48.20
2018-06-24T17:09:59.964Z,49.80
2018-06-24T17:12:29.431Z,48.40
2018-06-24T17:14:59.200Z,47.60
2018-06-24T17:17:28.670Z,50.60
2018-06-24T17:19:58.144Z,47.60
2018-06-24T17:22:27.444Z,49.70
2018-06-24T17:24:56.859Z,49.10
2018-06-24T17:27:26.224Z,48.40
2018-06-24T17:29:55.640Z,48.30
2018-06-24T17:32:24.993Z,49.40
2018-06-24T17:34:54.415Z,50.20
2018-06-24T17:37:23.792Z,48.40
2018-06-24T17:39:53.149Z,47.90
2018-06-24T17:42:22.557Z,47.20
2018-06-24T17:44:51.936Z,49.90
2018-06-24T17:47:21.321Z,49.30
2018-06-24T17:49:50.700Z,49.50
2018-06-24T17:52:20.108Z,49.00
2018-06-24T17:54:49.476Z,49.50
2018-06-24T17:57:18.914Z,49.70
2018-06-24T17:59:48.308Z,49.40
2018-06-24T18:02:17.681Z,49.90
2018-06-24T18:04:47.041Z,50.90
2018-06-24T18:07:16.403Z,49.40
2018-06-24T18:09:45.817Z,51.10
2018-06-24T18:12:15.191Z,51.70
2018-06-24T18:14:44.548Z,51.90
2018-06-24T18:17:13.915Z,51.90
2018-06-24T18:19:43.323Z,51.70
2018-06-24T18:22:12.740Z,51.90
2018-06-24T18:24:42.105Z,50.90
2018-06-24T18:27:11.476Z,51.60
2018-06-24T18:29:40.844Z,50.50
2018-06-24T18:32:10.289Z,50.90
2018-06-24T18:34:39.641Z,50.90
2018-06-24T18:37:09.016Z,52.00
2018-06-24T18:39:38.376Z,52.30
2018-06-24T18:42:07.777Z,52.30
2018-06-24T18:44:37.168Z,53.00
2018-06-24T18:47:06.800Z,52.50
2018-06-24T18:49:36.166Z,52.70
2018-06-24T18:52:05.585Z,51.20
2018-06-24T18:54:34.965Z,52.60
2018-06-24T18:57:04.353Z,53.60
2018-06-24T18:59:33.739Z,52.20
2018-06-24T19:02:03.165Z,53.10
2018-06-24T19:04:32.533Z,52.90
2018-06-24T19:07:01.895Z,53.70
2018-06-24T19:09:31.277Z,53.40
2018-06-24T19:12:00.637Z,53.00
2018-06-24T19:14:29.997Z,52.60
2018-06-24T19:16:59.364Z,54.00
2018-06-24T19:19:28.728Z,53.90
2018-06-24T19:21:58.095Z,53.10
2018-06-24T19:24:27.731Z,53.80
2018-06-24T19:26:57.134Z,52.80
2018-06-24T19:29:26.518Z,54.00
2018-06-24T19:31:55.906Z,53.90
2018-06-24T19:34:25.284Z,53.90
2018-06-24T19:36:54.861Z,53.30
2018-06-24T19:39:24.332Z,54.50
2018-06-24T19:41:53.967Z,54.00
2018-06-24T19:44:24.104Z,54.70
2018-06-24T19:46:53.945Z,54.50
2018-06-24T19:49:24.650Z,54.70
2018-06-24T19:51:54.838Z,55.20
2018-06-24T19:54:25.624Z,54.80
2018-06-24T19:56:55.968Z,53.90
2018-06-24T19:59:25.824Z,54.50
2018-06-24T20:01:55.258Z,54.70
2018-06-24T20:04:24.665Z,54.80
2018-06-24T20:06:54.048Z,54.50
2018-06-24T20:09:23.815Z,54.30
2018-06-24T20:11:53.354Z,55.20
2018-06-24T20:14:22.863Z,55.00
2018-06-24T20:16:52.227Z,54.90
2018-06-24T20:19:22.264Z,54.00
2018-06-24T20:21:52.521Z,54.30
2018-06-24T20:24:22.694Z,54.30
2018-06-24T20:26:52.685Z,54.10
2018-06-24T20:29:22.811Z,54.80
2018-06-24T20:31:52.673Z,54.40
2018-06-24T20:34:22.591Z,54.30
2018-06-24T20:36:51.950Z,55.00
2018-06-24T20:39:21.347Z,54.60
2018-06-24T20:41:50.868Z,54.70
2018-06-24T20:44:20.249Z,54.00
2018-06-24T20:46:49.697Z,54.20
2018-06-24T20:49:19.053Z,53.80
2018-06-24T20:51:49.375Z,54.00
2018-06-24T20:54:19.292Z,54.60
2018-06-24T20:56:49.469Z,54.70
2018-06-24T20:59:19.501Z,54.00
2018-06-24T21:01:49.573Z,54.30
2018-06-24T21:04:18.945Z,55.00
2018-06-24T21:06:50.116Z,54.70
2018-06-24T21:09:20.067Z,55.50
2018-06-24T21:11:49.752Z,55.00
2018-06-24T21:14:19.777Z,54.60
2018-06-24T21:16:50.061Z,55.00
2018-06-24T21:21:50.205Z,55.20
2018-06-24T21:24:23.741Z,55.00
2018-06-24T21:26:53.918Z,55.40
2018-06-24T21:29:23.718Z,55.10
2018-06-24T21:31:53.853Z,55.00
2018-06-24T21:34:23.415Z,54.80
2018-06-24T21:36:53.102Z,54.90
2018-06-24T21:39:23.601Z,55.00
2018-06-24T21:41:53.989Z,55.00
2018-06-24T21:44:24.428Z,55.40
2018-06-24T21:46:55.052Z,55.40
2018-06-24T21:49:25.453Z,55.00
2018-06-24T21:51:55.467Z,56.30
2018-06-24T21:54:25.843Z,56.20
2018-06-24T21:56:55.946Z,56.70
2018-06-24T21:59:26.400Z,55.70
2018-06-24T22:01:56.638Z,56.20
2018-06-24T22:04:26.963Z,56.40
2018-06-24T22:06:57.600Z,55.80
2018-06-24T22:09:27.237Z,56.50
2018-06-24T22:11:57.212Z,56.20
2018-06-24T22:14:26.937Z,56.50
2018-06-24T22:16:56.625Z,56.40
2018-06-24T22:19:26.584Z,56.00
2018-06-24T22:21:56.333Z,56.10
2018-06-24T22:24:26.179Z,56.20
2018-06-24T22:29:25.172Z,55.90
2018-06-24T22:31:55.036Z,56.10
2018-06-24T22:34:24.731Z,56.00
2018-06-24T22:36:54.452Z,56.30
2018-06-24T22:39:24.257Z,56.50
2018-06-24T22:41:53.925Z,56.20
2018-06-24T22:46:52.787Z,55.20
2018-06-24T22:49:22.536Z,56.10
2018-06-24T22:51:52.395Z,56.20
2018-06-24T22:54:22.079Z,55.30
2018-06-24T22:56:51.697Z,55.30
2018-06-24T22:59:32.093Z,55.10
2018-06-24T23:02:01.997Z,55.00
2018-06-24T23:04:31.822Z,56.70
2018-06-24T23:07:01.751Z,55.40
2018-06-24T23:09:31.612Z,55.70
2018-06-24T23:12:01.346Z,56.00
2018-06-24T23:14:30.960Z,56.60
2018-06-24T23:17:00.825Z,55.90
2018-06-24T23:19:30.581Z,57.70
2018-06-24T23:22:00.354Z,58.20
2018-06-24T23:24:29.992Z,58.10
2018-06-24T23:26:59.681Z,60.90
2018-06-24T23:29:29.316Z,61.00
2018-06-24T23:31:59.112Z,64.00
2018-06-24T23:34:28.896Z,63.20
2018-06-24T23:39:27.819Z,64.00
2018-06-24T23:41:57.660Z,63.60
2018-06-24T23:44:27.335Z,63.90
2018-06-24T23:46:57.078Z,64.80
2018-06-24T23:49:26.794Z,64.30
2018-06-24T23:51:56.553Z,66.50
2018-06-24T23:54:26.216Z,64.60
2018-06-24T23:57:00.781Z,65.40
2018-06-24T23:59:30.528Z,66.20
